sensor_id;sensor_type;location;lat;lon;timestamp;P1;durP1;ratioP1;P2;durP2;ratioP2
17796;SDS011;55596;53.554;9.916;2024-01-15T00:00:59;11.23;;;2.00;;
17796;SDS011;55596;53.554;9.916;2024-01-15T00:03:26;15.80;;;2.33;;
17796;SDS011;55596;53.554;9.916;2024-01-15T00:05:53;10.27;;;2.37;;
17796;SDS011;55596;53.554;9.916;2024-01-15T00:08:21;17.23;;;2.80;;
17796;SDS011;55596;53.554;9.916;2024-01-15T00:10:48;15.30;;;2.80;;
17796;SDS011;55596;53.554;9.916;2024-01-15T00:13:15;21.77;;;3.13;;
17796;SDS011;55596;53.554;9.916;2024-01-15T00:15:42;16.60;;;2.53;;
17796;SDS011;55596;53.554;9.916;2024-01-15T00:18:09;20.10;;;3.23;;
17796;SDS011;55596;53.554;9.916;2024-01-15T00:20:36;22.43;;;2.80;;
17796;SDS011;55596;53.554;9.916;2024-01-15T00:23:03;13.53;;;2.57;;
17796;SDS011;55596;53.554;9.916;2024-01-15T00:25:32;15.70;;;3.00;;
17796;SDS011;55596;53.554;9.916;2024-01-15T00:27:59;22.57;;;2.60;;
17796;SDS011;55596;53.554;9.916;2024-01-15T00:30:26;11.27;;;2.60;;
17796;SDS011;55596;53.554;9.916;2024-01-15T00:32:53;20.23;;;3.00;;
17796;SDS011;55596;53.554;9.916;2024-01-15T00:35:20;11.80;;;2.87;;
17796;SDS011;55596;53.554;9.916;2024-01-15T00:37:47;22.37;;;3.00;;
17796;SDS011;55596;53.554;9.916;2024-01-15T00:40:14;20.43;;;3.00;;
17796;SDS011;55596;53.554;9.916;2024-01-15T00:42:42;20.60;;;3.10;;
17796;SDS011;55596;53.554;9.916;2024-01-15T00:45:09;22.40;;;3.33;;
17796;SDS011;55596;53.554;9.916;2024-01-15T00:47:36;13.63;;;2.30;;
17796;SDS011;55596;53.554;9.916;2024-01-15T00:50:04;13.67;;;3.13;;
17796;SDS011;55596;53.554;9.916;2024-01-15T00:52:31;21.77;;;2.90;;
17796;SDS011;55596;53.554;9.916;2024-01-15T00:54:58;16.90;;;3.30;;
17796;SDS011;55596;53.554;9.916;2024-01-15T00:57:25;21.73;;;3.43;;
17796;SDS011;55596;53.554;9.916;2024-01-15T00:59:53;19.67;;;3.17;;
17796;SDS011;55596;53.554;9.916;2024-01-15T01:02:20;19.77;;;2.73;;
17796;SDS011;55596;53.554;9.916;2024-01-15T01:04:47;19.67;;;3.07;;
17796;SDS011;55596;53.554;9.916;2024-01-15T01:07:15;20.30;;;3.77;;
17796;SDS011;55596;53.554;9.916;2024-01-15T01:09:42;18.83;;;3.07;;
17796;SDS011;55596;53.554;9.916;2024-01-15T01:12:09;18.43;;;2.23;;
17796;SDS011;55596;53.554;9.916;2024-01-15T01:14:36;23.40;;;3.47;;
17796;SDS011;55596;53.554;9.916;2024-01-15T01:17:05;26.47;;;2.60;;
17796;SDS011;55596;53.554;9.916;2024-01-15T01:19:32;18.10;;;3.27;;
17796;SDS011;55596;53.554;9.916;2024-01-15T01:21:59;25.70;;;2.90;;
17796;SDS011;55596;53.554;9.916;2024-01-15T01:24:26;17.80;;;2.47;;
17796;SDS011;55596;53.554;9.916;2024-01-15T01:26:53;17.50;;;2.40;;
17796;SDS011;55596;53.554;9.916;2024-01-15T01:29:20;18.17;;;2.70;;
17796;SDS011;55596;53.554;9.916;2024-01-15T01:31:48;19.53;;;2.60;;
17796;SDS011;55596;53.554;9.916;2024-01-15T01:34:16;24.53;;;3.47;;
17796;SDS011;55596;53.554;9.916;2024-01-15T01:36:43;24.17;;;3.20;;
17796;SDS011;55596;53.554;9.916;2024-01-15T01:39:10;19.83;;;2.70;;
17796;SDS011;55596;53.554;9.916;2024-01-15T01:41:37;15.90;;;2.50;;
17796;SDS011;55596;53.554;9.916;2024-01-15T01:44:05;22.70;;;3.47;;
17796;SDS011;55596;53.554;9.916;2024-01-15T01:46:32;14.33;;;2.40;;
17796;SDS011;55596;53.554;9.916;2024-01-15T01:48:59;12.70;;;2.47;;
17796;SDS011;55596;53.554;9.916;2024-01-15T01:51:31;19.30;;;2.80;;
17796;SDS011;55596;53.554;9.916;2024-01-15T01:54:00;16.57;;;2.90;;
17796;SDS011;55596;53.554;9.916;2024-01-15T01:56:27;10.97;;;2.10;;
17796;SDS011;55596;53.554;9.916;2024-01-15T01:58:54;9.77;;;2.20;;
17796;SDS011;55596;53.554;9.916;2024-01-15T02:01:21;16.63;;;2.60;;
17796;SDS011;55596;53.554;9.916;2024-01-15T02:03:48;26.20;;;3.40;;
17796;SDS011;55596;53.554;9.916;2024-01-15T02:06:15;17.83;;;2.80;;
17796;SDS011;55596;53.554;9.916;2024-01-15T02:08:43;19.07;;;2.90;;
17796;SDS011;55596;53.554;9.916;2024-01-15T02:11:10;13.50;;;2.30;;
17796;SDS011;55596;53.554;9.916;2024-01-15T02:13:38;15.03;;;2.00;;
17796;SDS011;55596;53.554;9.916;2024-01-15T02:16:05;18.20;;;2.93;;
17796;SDS011;55596;53.554;9.916;2024-01-15T02:18:39;11.43;;;2.20;;
17796;SDS011;55596;53.554;9.916;2024-01-15T02:21:06;13.27;;;1.60;;
17796;SDS011;55596;53.554;9.916;2024-01-15T02:23:34;11.53;;;1.90;;
17796;SDS011;55596;53.554;9.916;2024-01-15T02:26:02;12.90;;;2.17;;
17796;SDS011;55596;53.554;9.916;2024-01-15T02:28:29;16.57;;;1.80;;
17796;SDS011;55596;53.554;9.916;2024-01-15T02:30:56;16.07;;;2.23;;
17796;SDS011;55596;53.554;9.916;2024-01-15T02:33:23;24.20;;;2.90;;
17796;SDS011;55596;53.554;9.916;2024-01-15T02:35:50;15.43;;;3.10;;
17796;SDS011;55596;53.554;9.916;2024-01-15T02:38:17;12.73;;;2.47;;
17796;SDS011;55596;53.554;9.916;2024-01-15T02:40:46;9.87;;;2.20;;
17796;SDS011;55596;53.554;9.916;2024-01-15T02:43:13;14.33;;;2.80;;
17796;SDS011;55596;53.554;9.916;2024-01-15T02:45:40;11.73;;;2.40;;
17796;SDS011;55596;53.554;9.916;2024-01-15T02:48:07;14.00;;;2.23;;
17796;SDS011;55596;53.554;9.916;2024-01-15T02:50:34;23.30;;;2.40;;
17796;SDS011;55596;53.554;9.916;2024-01-15T02:53:02;13.17;;;2.60;;
17796;SDS011;55596;53.554;9.916;2024-01-15T02:55:29;20.60;;;2.37;;
17796;SDS011;55596;53.554;9.916;2024-01-15T02:57:57;7.77;;;1.73;;
17796;SDS011;55596;53.554;9.916;2024-01-15T03:00:24;20.53;;;3.13;;
17796;SDS011;55596;53.554;9.916;2024-01-15T03:02:51;15.70;;;2.93;;
17796;SDS011;55596;53.554;9.916;2024-01-15T03:05:18;17.53;;;3.00;;
17796;SDS011;55596;53.554;9.916;2024-01-15T03:07:45;16.37;;;3.13;;
17796;SDS011;55596;53.554;9.916;2024-01-15T03:10:12;22.23;;;2.80;;
17796;SDS011;55596;53.554;9.916;2024-01-15T03:12:39;16.70;;;2.40;;
17796;SDS011;55596;53.554;9.916;2024-01-15T03:15:08;20.80;;;2.87;;
17796;SDS011;55596;53.554;9.916;2024-01-15T03:17:35;11.87;;;2.00;;
17796;SDS011;55596;53.554;9.916;2024-01-15T03:20:02;15.73;;;2.63;;
17796;SDS011;55596;53.554;9.916;2024-01-15T03:22:29;14.23;;;2.17;;
17796;SDS011;55596;53.554;9.916;2024-01-15T03:24:56;24.90;;;3.50;;
17796;SDS011;55596;53.554;9.916;2024-01-15T03:27:23;26.77;;;3.10;;
17796;SDS011;55596;53.554;9.916;2024-01-15T03:29:51;20.70;;;3.53;;
17796;SDS011;55596;53.554;9.916;2024-01-15T03:32:19;17.87;;;3.30;;
17796;SDS011;55596;53.554;9.916;2024-01-15T03:34:46;20.20;;;2.90;;
17796;SDS011;55596;53.554;9.916;2024-01-15T03:37:13;14.97;;;2.80;;
17796;SDS011;55596;53.554;9.916;2024-01-15T03:39:40;18.07;;;3.07;;
17796;SDS011;55596;53.554;9.916;2024-01-15T03:42:07;14.87;;;3.60;;
17796;SDS011;55596;53.554;9.916;2024-01-15T03:44:34;25.33;;;3.60;;
17796;SDS011;55596;53.554;9.916;2024-01-15T03:47:01;14.10;;;3.13;;
17796;SDS011;55596;53.554;9.916;2024-01-15T03:49:30;30.27;;;3.57;;
17796;SDS011;55596;53.554;9.916;2024-01-15T03:51:57;24.10;;;3.33;;
17796;SDS011;55596;53.554;9.916;2024-01-15T03:54:24;21.63;;;3.03;;
17796;SDS011;55596;53.554;9.916;2024-01-15T03:56:51;29.37;;;3.80;;
17796;SDS011;55596;53.554;9.916;2024-01-15T03:59:18;24.13;;;4.13;;
17796;SDS011;55596;53.554;9.916;2024-01-15T04:01:48;26.60;;;3.53;;
17796;SDS011;55596;53.554;9.916;2024-01-15T04:04:16;24.87;;;3.13;;
17796;SDS011;55596;53.554;9.916;2024-01-15T04:06:44;30.37;;;3.23;;
17796;SDS011;55596;53.554;9.916;2024-01-15T04:09:11;26.17;;;3.67;;
17796;SDS011;55596;53.554;9.916;2024-01-15T04:11:39;29.17;;;3.97;;
17796;SDS011;55596;53.554;9.916;2024-01-15T04:14:06;32.73;;;3.73;;
17796;SDS011;55596;53.554;9.916;2024-01-15T04:16:33;24.77;;;3.37;;
17796;SDS011;55596;53.554;9.916;2024-01-15T04:19:00;26.53;;;3.17;;
17796;SDS011;55596;53.554;9.916;2024-01-15T04:21:27;32.67;;;3.67;;
17796;SDS011;55596;53.554;9.916;2024-01-15T04:23:55;33.30;;;4.13;;
17796;SDS011;55596;53.554;9.916;2024-01-15T04:26:22;22.70;;;3.20;;
17796;SDS011;55596;53.554;9.916;2024-01-15T04:28:49;29.57;;;4.00;;
17796;SDS011;55596;53.554;9.916;2024-01-15T04:31:23;35.23;;;4.37;;
17796;SDS011;55596;53.554;9.916;2024-01-15T04:33:50;30.70;;;4.10;;
17796;SDS011;55596;53.554;9.916;2024-01-15T04:36:17;31.07;;;4.03;;
17796;SDS011;55596;53.554;9.916;2024-01-15T04:38:44;34.03;;;4.13;;
17796;SDS011;55596;53.554;9.916;2024-01-15T04:41:13;38.73;;;4.07;;
17796;SDS011;55596;53.554;9.916;2024-01-15T04:43:40;33.70;;;4.10;;
17796;SDS011;55596;53.554;9.916;2024-01-15T04:46:07;41.93;;;4.87;;
17796;SDS011;55596;53.554;9.916;2024-01-15T04:48:34;26.60;;;3.83;;
17796;SDS011;55596;53.554;9.916;2024-01-15T04:51:03;31.63;;;4.40;;
17796;SDS011;55596;53.554;9.916;2024-01-15T04:53:30;27.13;;;4.93;;
17796;SDS011;55596;53.554;9.916;2024-01-15T04:55:57;30.30;;;3.60;;
17796;SDS011;55596;53.554;9.916;2024-01-15T04:58:26;25.13;;;3.17;;
17796;SDS011;55596;53.554;9.916;2024-01-15T05:00:53;32.23;;;4.33;;
17796;SDS011;55596;53.554;9.916;2024-01-15T05:03:20;31.03;;;3.60;;
17796;SDS011;55596;53.554;9.916;2024-01-15T05:05:47;28.60;;;3.83;;
17796;SDS011;55596;53.554;9.916;2024-01-15T05:08:14;27.53;;;4.57;;
17796;SDS011;55596;53.554;9.916;2024-01-15T05:10:41;30.30;;;4.13;;
17796;SDS011;55596;53.554;9.916;2024-01-15T05:13:08;30.63;;;4.53;;
17796;SDS011;55596;53.554;9.916;2024-01-15T05:15:36;33.53;;;4.03;;
17796;SDS011;55596;53.554;9.916;2024-01-15T05:18:04;30.73;;;3.93;;
17796;SDS011;55596;53.554;9.916;2024-01-15T05:20:31;30.37;;;3.47;;
17796;SDS011;55596;53.554;9.916;2024-01-15T05:22:58;27.27;;;4.27;;
17796;SDS011;55596;53.554;9.916;2024-01-15T05:25:25;37.30;;;4.20;;
17796;SDS011;55596;53.554;9.916;2024-01-15T05:27:52;32.40;;;3.90;;
17796;SDS011;55596;53.554;9.916;2024-01-15T05:30:19;32.70;;;3.77;;
17796;SDS011;55596;53.554;9.916;2024-01-15T05:32:47;46.10;;;4.07;;
17796;SDS011;55596;53.554;9.916;2024-01-15T05:35:15;28.27;;;3.83;;
17796;SDS011;55596;53.554;9.916;2024-01-15T05:37:43;27.93;;;3.80;;
17796;SDS011;55596;53.554;9.916;2024-01-15T05:40:11;40.33;;;4.43;;
17796;SDS011;55596;53.554;9.916;2024-01-15T05:42:38;27.47;;;3.33;;
17796;SDS011;55596;53.554;9.916;2024-01-15T05:45:05;29.13;;;4.37;;
17796;SDS011;55596;53.554;9.916;2024-01-15T05:47:32;34.63;;;3.87;;
17796;SDS011;55596;53.554;9.916;2024-01-15T05:50:01;27.80;;;4.40;;
17796;SDS011;55596;53.554;9.916;2024-01-15T05:52:28;35.57;;;3.83;;
17796;SDS011;55596;53.554;9.916;2024-01-15T05:54:55;26.63;;;3.63;;
17796;SDS011;55596;53.554;9.916;2024-01-15T05:57:22;28.93;;;3.77;;
17796;SDS011;55596;53.554;9.916;2024-01-15T05:59:50;27.03;;;4.17;;
17796;SDS011;55596;53.554;9.916;2024-01-15T06:02:17;26.30;;;3.50;;
17796;SDS011;55596;53.554;9.916;2024-01-15T06:04:44;28.57;;;4.20;;
17796;SDS011;55596;53.554;9.916;2024-01-15T06:07:12;45.57;;;3.97;;
17796;SDS011;55596;53.554;9.916;2024-01-15T06:09:39;27.90;;;3.73;;
17796;SDS011;55596;53.554;9.916;2024-01-15T06:12:07;29.43;;;4.07;;
17796;SDS011;55596;53.554;9.916;2024-01-15T06:14:34;29.43;;;4.13;;
17796;SDS011;55596;53.554;9.916;2024-01-15T06:17:01;21.30;;;3.00;;
17796;SDS011;55596;53.554;9.916;2024-01-15T06:19:28;31.80;;;4.00;;
17796;SDS011;55596;53.554;9.916;2024-01-15T06:21:55;34.47;;;4.37;;
17796;SDS011;55596;53.554;9.916;2024-01-15T06:24:23;27.20;;;4.07;;
17796;SDS011;55596;53.554;9.916;2024-01-15T06:26:51;26.93;;;4.10;;
17796;SDS011;55596;53.554;9.916;2024-01-15T06:29:18;24.43;;;3.50;;
17796;SDS011;55596;53.554;9.916;2024-01-15T06:31:45;29.73;;;3.33;;
17796;SDS011;55596;53.554;9.916;2024-01-15T06:34:12;33.60;;;3.87;;
17796;SDS011;55596;53.554;9.916;2024-01-15T06:36:39;32.30;;;3.87;;
17796;SDS011;55596;53.554;9.916;2024-01-15T06:39:06;28.73;;;3.40;;
17796;SDS011;55596;53.554;9.916;2024-01-15T06:41:36;28.57;;;3.50;;
17796;SDS011;55596;53.554;9.916;2024-01-15T06:44:06;28.07;;;5.27;;
17796;SDS011;55596;53.554;9.916;2024-01-15T06:46:34;28.53;;;3.80;;
17796;SDS011;55596;53.554;9.916;2024-01-15T06:49:01;19.97;;;3.30;;
17796;SDS011;55596;53.554;9.916;2024-01-15T06:51:28;20.73;;;3.43;;
17796;SDS011;55596;53.554;9.916;2024-01-15T06:53:55;23.57;;;2.87;;
17796;SDS011;55596;53.554;9.916;2024-01-15T06:56:23;30.47;;;3.00;;
17796;SDS011;55596;53.554;9.916;2024-01-15T06:58:51;24.87;;;3.10;;
17796;SDS011;55596;53.554;9.916;2024-01-15T07:01:18;23.90;;;3.13;;
17796;SDS011;55596;53.554;9.916;2024-01-15T07:03:45;21.17;;;3.37;;
17796;SDS011;55596;53.554;9.916;2024-01-15T07:06:12;26.00;;;3.47;;
17796;SDS011;55596;53.554;9.916;2024-01-15T07:08:39;25.87;;;2.70;;
17796;SDS011;55596;53.554;9.916;2024-01-15T07:11:07;26.20;;;3.47;;
17796;SDS011;55596;53.554;9.916;2024-01-15T07:13:35;25.30;;;3.57;;
17796;SDS011;55596;53.554;9.916;2024-01-15T07:16:04;18.97;;;3.30;;
17796;SDS011;55596;53.554;9.916;2024-01-15T07:18:32;17.27;;;2.83;;
17796;SDS011;55596;53.554;9.916;2024-01-15T07:20:59;16.90;;;3.00;;
17796;SDS011;55596;53.554;9.916;2024-01-15T07:23:27;21.07;;;2.87;;
17796;SDS011;55596;53.554;9.916;2024-01-15T07:25:54;23.87;;;3.43;;
17796;SDS011;55596;53.554;9.916;2024-01-15T07:28:21;26.33;;;2.90;;
17796;SDS011;55596;53.554;9.916;2024-01-15T07:30:48;16.53;;;2.70;;
17796;SDS011;55596;53.554;9.916;2024-01-15T07:33:17;16.23;;;2.50;;
17796;SDS011;55596;53.554;9.916;2024-01-15T07:35:44;20.43;;;2.50;;
17796;SDS011;55596;53.554;9.916;2024-01-15T07:38:11;23.27;;;2.87;;
17796;SDS011;55596;53.554;9.916;2024-01-15T07:40:38;18.67;;;2.43;;
17796;SDS011;55596;53.554;9.916;2024-01-15T07:43:05;21.83;;;2.20;;
17796;SDS011;55596;53.554;9.916;2024-01-15T07:45:33;22.57;;;2.37;;
17796;SDS011;55596;53.554;9.916;2024-01-15T07:48:00;10.90;;;1.80;;
17796;SDS011;55596;53.554;9.916;2024-01-15T07:50:29;13.80;;;2.40;;
17796;SDS011;55596;53.554;9.916;2024-01-15T07:52:56;17.03;;;2.80;;
17796;SDS011;55596;53.554;9.916;2024-01-15T07:55:23;15.17;;;2.23;;
17796;SDS011;55596;53.554;9.916;2024-01-15T07:57:50;14.43;;;2.40;;
17796;SDS011;55596;53.554;9.916;2024-01-15T08:00:18;13.00;;;2.20;;
17796;SDS011;55596;53.554;9.916;2024-01-15T08:02:46;15.70;;;2.80;;
17796;SDS011;55596;53.554;9.916;2024-01-15T08:05:13;17.30;;;1.77;;
17796;SDS011;55596;53.554;9.916;2024-01-15T08:07:41;19.27;;;2.13;;
17796;SDS011;55596;53.554;9.916;2024-01-15T08:10:08;12.93;;;2.13;;
17796;SDS011;55596;53.554;9.916;2024-01-15T08:12:35;13.70;;;2.30;;
17796;SDS011;55596;53.554;9.916;2024-01-15T08:15:03;15.80;;;2.67;;
17796;SDS011;55596;53.554;9.916;2024-01-15T08:17:30;17.40;;;2.77;;
17796;SDS011;55596;53.554;9.916;2024-01-15T08:19:57;20.53;;;3.10;;
17796;SDS011;55596;53.554;9.916;2024-01-15T08:22:25;16.70;;;2.23;;
17796;SDS011;55596;53.554;9.916;2024-01-15T08:24:54;16.43;;;2.50;;
17796;SDS011;55596;53.554;9.916;2024-01-15T08:27:21;14.13;;;2.30;;
17796;SDS011;55596;53.554;9.916;2024-01-15T08:29:48;13.93;;;2.37;;
17796;SDS011;55596;53.554;9.916;2024-01-15T08:32:15;10.03;;;1.73;;
17796;SDS011;55596;53.554;9.916;2024-01-15T08:34:42;28.00;;;2.67;;
17796;SDS011;55596;53.554;9.916;2024-01-15T08:37:12;9.87;;;1.60;;
17796;SDS011;55596;53.554;9.916;2024-01-15T08:39:39;11.40;;;1.60;;
17796;SDS011;55596;53.554;9.916;2024-01-15T08:42:08;13.80;;;1.60;;
17796;SDS011;55596;53.554;9.916;2024-01-15T08:44:35;14.23;;;2.03;;
17796;SDS011;55596;53.554;9.916;2024-01-15T08:47:04;12.57;;;1.93;;
17796;SDS011;55596;53.554;9.916;2024-01-15T08:49:31;13.33;;;2.23;;
17796;SDS011;55596;53.554;9.916;2024-01-15T08:51:58;12.60;;;1.50;;
17796;SDS011;55596;53.554;9.916;2024-01-15T08:54:25;14.30;;;1.93;;
17796;SDS011;55596;53.554;9.916;2024-01-15T08:56:52;15.03;;;2.50;;
17796;SDS011;55596;53.554;9.916;2024-01-15T08:59:20;16.27;;;2.80;;
17796;SDS011;55596;53.554;9.916;2024-01-15T09:01:50;10.83;;;2.33;;
17796;SDS011;55596;53.554;9.916;2024-01-15T09:04:17;15.77;;;2.97;;
17796;SDS011;55596;53.554;9.916;2024-01-15T09:06:45;16.67;;;2.30;;
17796;SDS011;55596;53.554;9.916;2024-01-15T09:09:12;11.67;;;2.53;;
17796;SDS011;55596;53.554;9.916;2024-01-15T09:11:40;13.07;;;2.43;;
17796;SDS011;55596;53.554;9.916;2024-01-15T09:14:07;17.43;;;2.37;;
17796;SDS011;55596;53.554;9.916;2024-01-15T09:16:35;18.63;;;2.57;;
17796;SDS011;55596;53.554;9.916;2024-01-15T09:19:02;17.33;;;2.43;;
17796;SDS011;55596;53.554;9.916;2024-01-15T09:21:30;11.50;;;2.20;;
17796;SDS011;55596;53.554;9.916;2024-01-15T09:23:57;12.10;;;2.20;;
17796;SDS011;55596;53.554;9.916;2024-01-15T09:26:24;15.73;;;2.17;;
17796;SDS011;55596;53.554;9.916;2024-01-15T09:28:51;9.60;;;2.53;;
17796;SDS011;55596;53.554;9.916;2024-01-15T09:31:18;12.40;;;2.53;;
17796;SDS011;55596;53.554;9.916;2024-01-15T09:33:49;13.37;;;2.67;;
17796;SDS011;55596;53.554;9.916;2024-01-15T09:36:21;13.70;;;2.23;;
17796;SDS011;55596;53.554;9.916;2024-01-15T09:38:48;11.70;;;2.53;;
17796;SDS011;55596;53.554;9.916;2024-01-15T09:41:16;6.70;;;2.00;;
17796;SDS011;55596;53.554;9.916;2024-01-15T09:43:43;13.93;;;2.40;;
17796;SDS011;55596;53.554;9.916;2024-01-15T09:46:10;18.23;;;2.50;;
17796;SDS011;55596;53.554;9.916;2024-01-15T09:48:38;9.33;;;2.07;;
17796;SDS011;55596;53.554;9.916;2024-01-15T09:51:06;12.23;;;2.37;;
17796;SDS011;55596;53.554;9.916;2024-01-15T09:53:34;9.67;;;2.20;;
17796;SDS011;55596;53.554;9.916;2024-01-15T09:56:02;11.87;;;2.33;;
17796;SDS011;55596;53.554;9.916;2024-01-15T09:58:30;10.57;;;1.90;;
17796;SDS011;55596;53.554;9.916;2024-01-15T10:00:58;7.03;;;2.07;;
17796;SDS011;55596;53.554;9.916;2024-01-15T10:03:26;13.70;;;2.40;;
17796;SDS011;55596;53.554;9.916;2024-01-15T10:05:53;22.80;;;3.17;;
17796;SDS011;55596;53.554;9.916;2024-01-15T10:08:22;15.53;;;2.33;;
17796;SDS011;55596;53.554;9.916;2024-01-15T10:10:50;20.13;;;2.20;;
17796;SDS011;55596;53.554;9.916;2024-01-15T10:13:17;14.47;;;1.80;;
17796;SDS011;55596;53.554;9.916;2024-01-15T10:15:45;13.57;;;2.10;;
17796;SDS011;55596;53.554;9.916;2024-01-15T10:18:12;15.10;;;2.10;;
17796;SDS011;55596;53.554;9.916;2024-01-15T10:20:40;10.67;;;2.03;;
17796;SDS011;55596;53.554;9.916;2024-01-15T10:23:07;10.40;;;1.83;;
17796;SDS011;55596;53.554;9.916;2024-01-15T10:25:36;10.33;;;2.80;;
17796;SDS011;55596;53.554;9.916;2024-01-15T10:28:03;10.90;;;1.90;;
17796;SDS011;55596;53.554;9.916;2024-01-15T10:30:35;8.47;;;2.70;;
17796;SDS011;55596;53.554;9.916;2024-01-15T10:33:02;11.40;;;2.03;;
17796;SDS011;55596;53.554;9.916;2024-01-15T10:35:30;11.50;;;2.60;;
17796;SDS011;55596;53.554;9.916;2024-01-15T10:37:57;7.90;;;1.83;;
17796;SDS011;55596;53.554;9.916;2024-01-15T10:40:25;18.37;;;2.20;;
17796;SDS011;55596;53.554;9.916;2024-01-15T10:42:53;18.97;;;1.90;;
17796;SDS011;55596;53.554;9.916;2024-01-15T10:45:20;11.60;;;1.70;;
17796;SDS011;55596;53.554;9.916;2024-01-15T10:47:47;10.73;;;1.67;;
17796;SDS011;55596;53.554;9.916;2024-01-15T10:50:14;10.80;;;1.33;;
17796;SDS011;55596;53.554;9.916;2024-01-15T10:52:42;11.03;;;1.80;;
17796;SDS011;55596;53.554;9.916;2024-01-15T10:55:09;9.83;;;1.53;;
17796;SDS011;55596;53.554;9.916;2024-01-15T10:57:37;23.37;;;2.37;;
17796;SDS011;55596;53.554;9.916;2024-01-15T11:00:06;17.80;;;1.73;;
17796;SDS011;55596;53.554;9.916;2024-01-15T11:02:37;12.10;;;2.00;;
17796;SDS011;55596;53.554;9.916;2024-01-15T11:05:05;10.47;;;1.57;;
17796;SDS011;55596;53.554;9.916;2024-01-15T11:07:32;8.20;;;1.50;;
17796;SDS011;55596;53.554;9.916;2024-01-15T11:09:59;9.67;;;1.47;;
17796;SDS011;55596;53.554;9.916;2024-01-15T11:12:26;7.70;;;1.70;;
17796;SDS011;55596;53.554;9.916;2024-01-15T11:15:00;6.27;;;1.67;;
17796;SDS011;55596;53.554;9.916;2024-01-15T11:17:31;5.43;;;1.50;;
17796;SDS011;55596;53.554;9.916;2024-01-15T11:20:17;4.53;;;2.30;;
17796;SDS011;55596;53.554;9.916;2024-01-15T11:22:47;6.97;;;2.00;;
17796;SDS011;55596;53.554;9.916;2024-01-15T11:25:15;6.37;;;2.23;;
17796;SDS011;55596;53.554;9.916;2024-01-15T11:27:42;3.40;;;2.20;;
17796;SDS011;55596;53.554;9.916;2024-01-15T11:30:10;8.77;;;2.67;;
17796;SDS011;55596;53.554;9.916;2024-01-15T11:32:39;6.57;;;2.50;;
17796;SDS011;55596;53.554;9.916;2024-01-15T11:35:07;6.80;;;2.60;;
17796;SDS011;55596;53.554;9.916;2024-01-15T11:40:21;10.50;;;1.93;;
17796;SDS011;55596;53.554;9.916;2024-01-15T11:42:48;7.87;;;1.67;;
17796;SDS011;55596;53.554;9.916;2024-01-15T11:45:18;4.83;;;2.13;;
17796;SDS011;55596;53.554;9.916;2024-01-15T11:48:05;3.77;;;1.50;;
17796;SDS011;55596;53.554;9.916;2024-01-15T11:50:35;8.63;;;2.23;;
17796;SDS011;55596;53.554;9.916;2024-01-15T11:53:07;7.37;;;1.70;;
17796;SDS011;55596;53.554;9.916;2024-01-15T11:55:38;11.50;;;1.53;;
17796;SDS011;55596;53.554;9.916;2024-01-15T11:58:07;5.50;;;1.63;;
17796;SDS011;55596;53.554;9.916;2024-01-15T12:00:36;7.47;;;1.50;;
17796;SDS011;55596;53.554;9.916;2024-01-15T12:03:07;8.87;;;2.23;;
17796;SDS011;55596;53.554;9.916;2024-01-15T12:05:36;6.57;;;2.00;;
17796;SDS011;55596;53.554;9.916;2024-01-15T12:08:04;3.20;;;1.60;;
17796;SDS011;55596;53.554;9.916;2024-01-15T12:10:35;6.10;;;1.53;;
17796;SDS011;55596;53.554;9.916;2024-01-15T12:13:04;7.77;;;1.47;;
17796;SDS011;55596;53.554;9.916;2024-01-15T12:15:32;6.30;;;1.73;;
17796;SDS011;55596;53.554;9.916;2024-01-15T12:17:59;11.23;;;1.17;;
17796;SDS011;55596;53.554;9.916;2024-01-15T12:20:28;4.67;;;1.33;;
17796;SDS011;55596;53.554;9.916;2024-01-15T12:22:56;10.30;;;1.67;;
17796;SDS011;55596;53.554;9.916;2024-01-15T12:25:23;6.43;;;1.30;;
17796;SDS011;55596;53.554;9.916;2024-01-15T12:27:52;4.90;;;1.70;;
17796;SDS011;55596;53.554;9.916;2024-01-15T12:30:19;5.93;;;1.50;;
17796;SDS011;55596;53.554;9.916;2024-01-15T12:32:46;5.20;;;1.90;;
17796;SDS011;55596;53.554;9.916;2024-01-15T12:35:13;8.63;;;1.33;;
17796;SDS011;55596;53.554;9.916;2024-01-15T12:37:42;5.83;;;1.50;;
17796;SDS011;55596;53.554;9.916;2024-01-15T12:40:11;3.97;;;1.70;;
17796;SDS011;55596;53.554;9.916;2024-01-15T12:42:39;2.13;;;1.37;;
17796;SDS011;55596;53.554;9.916;2024-01-15T12:45:06;4.40;;;1.90;;
17796;SDS011;55596;53.554;9.916;2024-01-15T12:47:34;5.13;;;2.57;;
17796;SDS011;55596;53.554;9.916;2024-01-15T12:50:01;8.23;;;2.37;;
17796;SDS011;55596;53.554;9.916;2024-01-15T12:52:28;4.47;;;2.27;;
17796;SDS011;55596;53.554;9.916;2024-01-15T12:54:57;3.40;;;2.23;;
17796;SDS011;55596;53.554;9.916;2024-01-15T12:57:24;7.80;;;2.37;;
17796;SDS011;55596;53.554;9.916;2024-01-15T12:59:54;8.43;;;2.10;;
17796;SDS011;55596;53.554;9.916;2024-01-15T13:02:21;6.57;;;1.70;;
17796;SDS011;55596;53.554;9.916;2024-01-15T13:04:48;2.57;;;1.90;;
17796;SDS011;55596;53.554;9.916;2024-01-15T13:07:16;3.13;;;1.90;;
17796;SDS011;55596;53.554;9.916;2024-01-15T13:09:43;5.93;;;2.40;;
17796;SDS011;55596;53.554;9.916;2024-01-15T13:12:11;3.40;;;2.13;;
17796;SDS011;55596;53.554;9.916;2024-01-15T13:14:38;2.60;;;2.10;;
17796;SDS011;55596;53.554;9.916;2024-01-15T13:17:06;3.80;;;2.30;;
17796;SDS011;55596;53.554;9.916;2024-01-15T13:19:33;3.57;;;2.50;;
17796;SDS011;55596;53.554;9.916;2024-01-15T13:22:00;3.20;;;2.40;;
17796;SDS011;55596;53.554;9.916;2024-01-15T13:24:28;3.07;;;2.07;;
17796;SDS011;55596;53.554;9.916;2024-01-15T13:26:55;8.93;;;4.03;;
17796;SDS011;55596;53.554;9.916;2024-01-15T13:29:24;5.27;;;2.63;;
17796;SDS011;55596;53.554;9.916;2024-01-15T13:31:54;7.73;;;2.73;;
17796;SDS011;55596;53.554;9.916;2024-01-15T13:34:21;6.43;;;2.70;;
17796;SDS011;55596;53.554;9.916;2024-01-15T13:36:48;8.53;;;2.40;;
17796;SDS011;55596;53.554;9.916;2024-01-15T13:39:15;5.53;;;3.13;;
17796;SDS011;55596;53.554;9.916;2024-01-15T13:41:45;3.67;;;2.63;;
17796;SDS011;55596;53.554;9.916;2024-01-15T13:44:12;8.97;;;2.80;;
17796;SDS011;55596;53.554;9.916;2024-01-15T13:46:40;30.73;;;4.23;;
17796;SDS011;55596;53.554;9.916;2024-01-15T13:49:07;4.37;;;2.47;;
17796;SDS011;55596;53.554;9.916;2024-01-15T13:51:35;5.03;;;2.63;;
17796;SDS011;55596;53.554;9.916;2024-01-15T13:54:02;6.30;;;3.00;;
17796;SDS011;55596;53.554;9.916;2024-01-15T13:56:30;4.90;;;2.67;;
17796;SDS011;55596;53.554;9.916;2024-01-15T13:58:57;5.67;;;3.10;;
17796;SDS011;55596;53.554;9.916;2024-01-15T14:01:24;7.57;;;2.30;;
17796;SDS011;55596;53.554;9.916;2024-01-15T14:03:53;4.37;;;2.33;;
17796;SDS011;55596;53.554;9.916;2024-01-15T14:06:20;4.20;;;2.30;;
17796;SDS011;55596;53.554;9.916;2024-01-15T14:08:47;8.63;;;2.53;;
17796;SDS011;55596;53.554;9.916;2024-01-15T14:11:14;8.57;;;3.20;;
17796;SDS011;55596;53.554;9.916;2024-01-15T14:13:41;4.63;;;2.23;;
17796;SDS011;55596;53.554;9.916;2024-01-15T14:16:10;6.50;;;2.40;;
17796;SDS011;55596;53.554;9.916;2024-01-15T14:18:37;5.67;;;2.40;;
17796;SDS011;55596;53.554;9.916;2024-01-15T14:21:06;5.80;;;2.70;;
17796;SDS011;55596;53.554;9.916;2024-01-15T14:23:33;5.60;;;2.50;;
17796;SDS011;55596;53.554;9.916;2024-01-15T14:26:00;5.63;;;2.63;;
17796;SDS011;55596;53.554;9.916;2024-01-15T14:28:27;4.80;;;2.50;;
17796;SDS011;55596;53.554;9.916;2024-01-15T14:30:54;5.37;;;2.87;;
17796;SDS011;55596;53.554;9.916;2024-01-15T14:33:23;5.23;;;3.10;;
17796;SDS011;55596;53.554;9.916;2024-01-15T14:35:50;6.80;;;3.20;;
17796;SDS011;55596;53.554;9.916;2024-01-15T14:38:18;6.57;;;3.70;;
17796;SDS011;55596;53.554;9.916;2024-01-15T14:40:45;5.63;;;3.57;;
17796;SDS011;55596;53.554;9.916;2024-01-15T14:43:13;5.40;;;2.90;;